FDX3951 KEWR-KLAX
Flight info
| Callsign | FDX3951 |
|---|---|
| Flight time | 5h 16m |
| Altitude | 36000 |
| Route | NEWEL J60 DANNR RAV J64 FWA EDENS WELKY Q90 DNERO ANJLL4 |
| Aircraft | MD11/H-SDE1E2E3FGHIJ2J3J4J5M1RWXY/LB1D1 |
Departure
| Time | 2026-04-22 16:43 |
|---|---|
| Airport | Newark Liberty International Airport (KEWR) |
Arrival
| Time | 2026-04-22 21:59 |
|---|---|
| Airport | Los Angeles International Airport (KLAX) |
| Time | Latitude | Longitude | Altitude | Speed | Heading |
|---|---|---|---|---|---|
| 2026-04-22 16:14 | 40.67720 | -74.18462 | 29 ft | 0 kts | 206° |
| 2026-04-22 16:28 | 40.67735 | -74.18452 | 28 ft | 4 kts | 206° |
| 2026-04-22 16:28 | 40.67750 | -74.18443 | 28 ft | 2 kts | 206° |
| 2026-04-22 16:28 | 40.67766 | -74.18433 | 29 ft | 4 kts | 170° |
| 2026-04-22 16:29 | 40.67781 | -74.18442 | 28 ft | 4 kts | 117° |
| 2026-04-22 16:29 | 40.67793 | -74.18472 | 28 ft | 3 kts | 115° |
| 2026-04-22 16:29 | 40.67795 | -74.18478 | 28 ft | 0 kts | 115° |
| 2026-04-22 16:32 | 40.67789 | -74.18462 | 28 ft | 4 kts | 115° |
| 2026-04-22 16:32 | 40.67773 | -74.18406 | 30 ft | 9 kts | 105° |
| 2026-04-22 16:33 | 40.67746 | -74.18317 | 30 ft | 12 kts | 114° |
| 2026-04-22 16:33 | 40.67704 | -74.18207 | 30 ft | 14 kts | 116° |
| 2026-04-22 16:33 | 40.67664 | -74.18131 | 30 ft | 8 kts | 135° |
| 2026-04-22 16:33 | 40.67629 | -74.18087 | 30 ft | 6 kts | 135° |
| 2026-04-22 16:34 | 40.67601 | -74.18047 | 29 ft | 5 kts | 132° |
| 2026-04-22 16:34 | 40.67578 | -74.18012 | 30 ft | 5 kts | 130° |
| 2026-04-22 16:34 | 40.67555 | -74.17952 | 30 ft | 11 kts | 115° |
| 2026-04-22 16:34 | 40.67527 | -74.17829 | 30 ft | 17 kts | 84° |
| 2026-04-22 16:35 | 40.67592 | -74.17751 | 29 ft | 15 kts | 26° |
| 2026-04-22 16:35 | 40.67708 | -74.17676 | 28 ft | 22 kts | 26° |
| 2026-04-22 16:35 | 40.67869 | -74.17573 | 27 ft | 28 kts | 27° |
| 2026-04-22 16:35 | 40.68033 | -74.17465 | 28 ft | 26 kts | 25° |
| 2026-04-22 16:36 | 40.68188 | -74.17371 | 29 ft | 23 kts | 25° |
| 2026-04-22 16:36 | 40.68325 | -74.17286 | 30 ft | 21 kts | 26° |
| 2026-04-22 16:36 | 40.68445 | -74.17208 | 29 ft | 18 kts | 26° |
| 2026-04-22 16:36 | 40.68553 | -74.17139 | 30 ft | 16 kts | 25° |
| 2026-04-22 16:37 | 40.68652 | -74.17076 | 30 ft | 15 kts | 26° |
| 2026-04-22 16:37 | 40.68746 | -74.17016 | 28 ft | 15 kts | 26° |
| 2026-04-22 16:37 | 40.68815 | -74.16972 | 29 ft | 15 kts | 26° |
| 2026-04-22 16:37 | 40.68909 | -74.16913 | 29 ft | 14 kts | 26° |
| 2026-04-22 16:38 | 40.68997 | -74.16857 | 30 ft | 14 kts | 26° |
| 2026-04-22 16:38 | 40.69081 | -74.16803 | 30 ft | 13 kts | 26° |
| 2026-04-22 16:38 | 40.69160 | -74.16753 | 30 ft | 13 kts | 25° |
| 2026-04-22 16:38 | 40.69238 | -74.16707 | 30 ft | 12 kts | 26° |
| 2026-04-22 16:39 | 40.69312 | -74.16659 | 30 ft | 12 kts | 26° |
| 2026-04-22 16:39 | 40.69387 | -74.16611 | 30 ft | 13 kts | 26° |
| 2026-04-22 16:39 | 40.69476 | -74.16554 | 30 ft | 16 kts | 26° |
| 2026-04-22 16:39 | 40.69583 | -74.16485 | 28 ft | 19 kts | 26° |
| 2026-04-22 16:40 | 40.69700 | -74.16409 | 29 ft | 21 kts | 26° |
| 2026-04-22 16:40 | 40.69839 | -74.16320 | 29 ft | 23 kts | 25° |
| 2026-04-22 16:40 | 40.70120 | -74.16143 | 28 ft | 21 kts | 26° |
| 2026-04-22 16:41 | 40.70239 | -74.16056 | 28 ft | 15 kts | 46° |
| 2026-04-22 16:41 | 40.70253 | -74.15948 | 30 ft | 11 kts | 93° |
| 2026-04-22 16:41 | 40.70227 | -74.15883 | 30 ft | 4 kts | 148° |
| 2026-04-22 16:41 | 40.70208 | -74.15876 | 29 ft | 2 kts | 168° |
| 2026-04-22 16:42 | 40.70176 | -74.15881 | 31 ft | 8 kts | 192° |
| 2026-04-22 16:42 | 40.70100 | -74.15930 | 31 ft | 19 kts | 207° |
| 2026-04-22 16:42 | 40.69711 | -74.16181 | 29 ft | 107 kts | 205° |
| 2026-04-22 16:42 | 40.68806 | -74.16748 | 33 ft | 178 kts | 207° |
| 2026-04-22 16:43 | 40.67632 | -74.17563 | 456 ft | 193 kts | 208° |
| 2026-04-22 16:43 | 40.66503 | -74.18385 | 1545 ft | 175 kts | 206° |
| 2026-04-22 16:43 | 40.65329 | -74.18812 | 2505 ft | 177 kts | 189° |
| 2026-04-22 16:43 | 40.64113 | -74.18994 | 3385 ft | 184 kts | 193° |
| 2026-04-22 16:44 | 40.62795 | -74.19603 | 3642 ft | 216 kts | 216° |
| 2026-04-22 16:44 | 40.61751 | -74.21078 | 3844 ft | 236 kts | 244° |
| 2026-04-22 16:44 | 40.61039 | -74.23129 | 4125 ft | 255 kts | 250° |
| 2026-04-22 16:44 | 40.60383 | -74.25285 | 4998 ft | 255 kts | 250° |
| 2026-04-22 16:45 | 40.59796 | -74.27493 | 5847 ft | 256 kts | 259° |
| 2026-04-22 16:45 | 40.59721 | -74.29790 | 6701 ft | 254 kts | 281° |
| 2026-04-22 16:45 | 40.60352 | -74.31979 | 7517 ft | 254 kts | 298° |
| 2026-04-22 16:45 | 40.61255 | -74.33983 | 8342 ft | 255 kts | 302° |
| 2026-04-22 16:46 | 40.62206 | -74.35956 | 9261 ft | 255 kts | 303° |
| 2026-04-22 16:46 | 40.63162 | -74.37923 | 10109 ft | 256 kts | 303° |
| 2026-04-22 16:46 | 40.64167 | -74.39994 | 10353 ft | 282 kts | 303° |
| 2026-04-22 16:46 | 40.65212 | -74.42306 | 10496 ft | 306 kts | 299° |
| 2026-04-22 16:47 | 40.66217 | -74.44893 | 10770 ft | 324 kts | 297° |
| 2026-04-22 16:47 | 40.67201 | -74.47573 | 11576 ft | 327 kts | 297° |
| 2026-04-22 16:47 | 40.67853 | -74.49368 | 12160 ft | 328 kts | 297° |
| 2026-04-22 16:47 | 40.69173 | -74.53017 | 13181 ft | 333 kts | 297° |
| 2026-04-22 16:48 | 40.70173 | -74.55791 | 13951 ft | 337 kts | 296° |
| 2026-04-22 16:48 | 40.70997 | -74.58718 | 14614 ft | 341 kts | 290° |
| 2026-04-22 16:48 | 40.71445 | -74.60708 | 15072 ft | 344 kts | 289° |
| 2026-04-22 16:48 | 40.72073 | -74.63766 | 15773 ft | 347 kts | 288° |
| 2026-04-22 16:49 | 40.72684 | -74.66858 | 16457 ft | 351 kts | 288° |
| 2026-04-22 16:49 | 40.73505 | -74.71009 | 17376 ft | 355 kts | 288° |
| 2026-04-22 16:49 | 40.73926 | -74.73130 | 17852 ft | 357 kts | 289° |
| 2026-04-22 16:49 | 40.74561 | -74.76320 | 18529 ft | 360 kts | 289° |
| 2026-04-22 16:50 | 40.75412 | -74.80574 | 19327 ft | 364 kts | 289° |
| 2026-04-22 16:50 | 40.75849 | -74.82758 | 19731 ft | 366 kts | 289° |
| 2026-04-22 16:50 | 40.76502 | -74.86017 | 20334 ft | 368 kts | 289° |
| 2026-04-22 16:50 | 40.77157 | -74.89289 | 20923 ft | 370 kts | 289° |
| 2026-04-22 16:51 | 40.77815 | -74.92582 | 21493 ft | 373 kts | 289° |
| 2026-04-22 16:51 | 40.78477 | -74.95898 | 22063 ft | 376 kts | 289° |
| 2026-04-22 16:51 | 40.79146 | -74.99258 | 22614 ft | 379 kts | 289° |
| 2026-04-22 16:51 | 40.79816 | -75.02621 | 23187 ft | 382 kts | 289° |
| 2026-04-22 16:52 | 40.80494 | -75.06031 | 23737 ft | 384 kts | 289° |
| 2026-04-22 16:52 | 40.81173 | -75.09461 | 24201 ft | 387 kts | 289° |
| 2026-04-22 16:52 | 40.81849 | -75.12915 | 24635 ft | 390 kts | 289° |
| 2026-04-22 16:52 | 40.82494 | -75.16352 | 25061 ft | 393 kts | 288° |
| 2026-04-22 16:53 | 40.83153 | -75.19922 | 25516 ft | 396 kts | 288° |
| 2026-04-22 16:53 | 40.83792 | -75.23398 | 25930 ft | 399 kts | 288° |
| 2026-04-22 16:53 | 40.84454 | -75.26996 | 26375 ft | 402 kts | 288° |
| 2026-04-22 16:53 | 40.85117 | -75.30593 | 26786 ft | 405 kts | 289° |
| 2026-04-22 16:54 | 40.85785 | -75.34221 | 27210 ft | 408 kts | 288° |
| 2026-04-22 16:54 | 40.86327 | -75.37901 | 27596 ft | 415 kts | 282° |
| 2026-04-22 16:54 | 40.86350 | -75.41782 | 28002 ft | 428 kts | 270° |
| 2026-04-22 16:54 | 40.85753 | -75.45675 | 28349 ft | 439 kts | 262° |
| 2026-04-22 16:55 | 40.84841 | -75.49569 | 28701 ft | 446 kts | 259° |
| 2026-04-22 16:55 | 40.83828 | -75.53459 | 29062 ft | 450 kts | 258° |
| 2026-04-22 16:55 | 40.82803 | -75.57376 | 29404 ft | 453 kts | 258° |
| 2026-04-22 16:55 | 40.81802 | -75.61319 | 29764 ft | 455 kts | 259° |
| 2026-04-22 16:56 | 40.80820 | -75.65299 | 30123 ft | 457 kts | 259° |
| 2026-04-22 16:56 | 40.79858 | -75.69295 | 30439 ft | 459 kts | 260° |
| 2026-04-22 16:56 | 40.78894 | -75.73341 | 30816 ft | 460 kts | 260° |
| 2026-04-22 16:56 | 40.77938 | -75.77368 | 31248 ft | 459 kts | 260° |
| 2026-04-22 16:57 | 40.76983 | -75.81389 | 31698 ft | 459 kts | 260° |
| 2026-04-22 16:57 | 40.76034 | -75.85382 | 32138 ft | 458 kts | 260° |
| 2026-04-22 16:57 | 40.75081 | -75.89385 | 32566 ft | 457 kts | 260° |
| 2026-04-22 16:57 | 40.74130 | -75.93373 | 32963 ft | 456 kts | 260° |
| 2026-04-22 16:58 | 40.73173 | -75.97374 | 33375 ft | 456 kts | 260° |
| 2026-04-22 16:58 | 40.72222 | -76.01342 | 33774 ft | 455 kts | 260° |
| 2026-04-22 16:58 | 40.71266 | -76.05327 | 34146 ft | 454 kts | 260° |
| 2026-04-22 16:58 | 40.70317 | -76.09277 | 34461 ft | 454 kts | 260° |
| 2026-04-22 16:59 | 40.69361 | -76.13246 | 34777 ft | 453 kts | 260° |
| 2026-04-22 16:59 | 40.68409 | -76.17186 | 35075 ft | 451 kts | 260° |
| 2026-04-22 16:59 | 40.67441 | -76.21135 | 35344 ft | 453 kts | 258° |
| 2026-04-22 16:59 | 40.66356 | -76.25014 | 35643 ft | 454 kts | 256° |
| 2026-04-22 17:00 | 40.65175 | -76.28887 | 35935 ft | 455 kts | 255° |
| 2026-04-22 17:00 | 40.62726 | -76.36638 | 36073 ft | 459 kts | 254° |
| 2026-04-22 17:00 | 40.61518 | -76.40446 | 36077 ft | 456 kts | 255° |
| 2026-04-22 17:01 | 40.59089 | -76.48161 | 36081 ft | 452 kts | 255° |
| 2026-04-22 17:01 | 40.56724 | -76.55758 | 36078 ft | 452 kts | 256° |
| 2026-04-22 17:02 | 40.55463 | -76.63650 | 36079 ft | 432 kts | 276° |
| 2026-04-22 17:02 | 40.56070 | -76.71396 | 36087 ft | 426 kts | 284° |
| 2026-04-22 17:03 | 40.56981 | -76.79100 | 36077 ft | 426 kts | 283° |
| 2026-04-22 17:03 | 40.57770 | -76.86844 | 36064 ft | 427 kts | 282° |
| 2026-04-22 17:04 | 40.58477 | -76.94599 | 36073 ft | 428 kts | 282° |
| 2026-04-22 17:04 | 40.59158 | -77.02372 | 36073 ft | 428 kts | 282° |
| 2026-04-22 17:05 | 40.59833 | -77.10127 | 36078 ft | 427 kts | 282° |
| 2026-04-22 17:05 | 40.60507 | -77.17913 | 36079 ft | 428 kts | 282° |
| 2026-04-22 17:06 | 40.61175 | -77.25692 | 36054 ft | 428 kts | 282° |
| 2026-04-22 17:06 | 40.61840 | -77.33482 | 36038 ft | 428 kts | 282° |
| 2026-04-22 17:07 | 40.62498 | -77.41261 | 36029 ft | 428 kts | 282° |
| 2026-04-22 17:07 | 40.63132 | -77.49051 | 36020 ft | 428 kts | 281° |
| 2026-04-22 17:08 | 40.63762 | -77.56838 | 36016 ft | 428 kts | 281° |
| 2026-04-22 17:08 | 40.64399 | -77.64641 | 36013 ft | 428 kts | 281° |
| 2026-04-22 17:09 | 40.65037 | -77.72435 | 36011 ft | 428 kts | 281° |
| 2026-04-22 17:09 | 40.65670 | -77.80227 | 36023 ft | 428 kts | 281° |
| 2026-04-22 17:10 | 40.66291 | -77.88005 | 36023 ft | 428 kts | 281° |
| 2026-04-22 17:10 | 40.66913 | -77.95819 | 36023 ft | 428 kts | 281° |
| 2026-04-22 17:11 | 40.67530 | -78.03627 | 36025 ft | 429 kts | 281° |
| 2026-04-22 17:11 | 40.68145 | -78.11440 | 36025 ft | 429 kts | 281° |
| 2026-04-22 17:12 | 40.68751 | -78.19223 | 36021 ft | 429 kts | 281° |
| 2026-04-22 17:12 | 40.69355 | -78.27047 | 36026 ft | 429 kts | 281° |
| 2026-04-22 17:13 | 40.69954 | -78.34878 | 36028 ft | 429 kts | 281° |
| 2026-04-22 17:13 | 40.70544 | -78.42671 | 36026 ft | 429 kts | 281° |
| 2026-04-22 17:14 | 40.71133 | -78.50499 | 36024 ft | 428 kts | 281° |
| 2026-04-22 17:14 | 40.71715 | -78.58314 | 36027 ft | 429 kts | 281° |
| 2026-04-22 17:15 | 40.72289 | -78.66086 | 36024 ft | 429 kts | 280° |
| 2026-04-22 17:15 | 40.72864 | -78.73956 | 36027 ft | 428 kts | 280° |
| 2026-04-22 17:16 | 40.73425 | -78.81728 | 36025 ft | 429 kts | 280° |
| 2026-04-22 17:16 | 40.73980 | -78.89547 | 36025 ft | 429 kts | 280° |
| 2026-04-22 17:17 | 40.74503 | -78.97382 | 36030 ft | 429 kts | 280° |
| 2026-04-22 17:17 | 40.75037 | -79.05225 | 36036 ft | 429 kts | 280° |
| 2026-04-22 17:18 | 40.75578 | -79.13053 | 36029 ft | 429 kts | 280° |
| 2026-04-22 17:18 | 40.76118 | -79.20888 | 36033 ft | 429 kts | 280° |
| 2026-04-22 17:19 | 40.77184 | -79.36592 | 36036 ft | 430 kts | 279° |
| 2026-04-22 17:20 | 40.78232 | -79.52330 | 36039 ft | 431 kts | 279° |
| 2026-04-22 17:21 | 40.79002 | -79.64147 | 36051 ft | 431 kts | 279° |
| 2026-04-22 17:22 | 40.79762 | -79.75971 | 36054 ft | 431 kts | 279° |
| 2026-04-22 17:23 | 40.80511 | -79.87807 | 36062 ft | 432 kts | 279° |
| 2026-04-22 17:23 | 40.81240 | -79.99663 | 36063 ft | 432 kts | 279° |
| 2026-04-22 17:24 | 40.81691 | -80.07562 | 36061 ft | 432 kts | 279° |
| 2026-04-22 17:24 | 40.82156 | -80.15486 | 36061 ft | 432 kts | 279° |
| 2026-04-22 17:25 | 40.82610 | -80.23387 | 36050 ft | 433 kts | 278° |
| 2026-04-22 17:25 | 40.83025 | -80.31329 | 36055 ft | 433 kts | 278° |
| 2026-04-22 17:26 | 40.83429 | -80.39210 | 36049 ft | 433 kts | 278° |
| 2026-04-22 17:26 | 40.83834 | -80.47144 | 36058 ft | 433 kts | 278° |
| 2026-04-22 17:27 | 40.84234 | -80.55062 | 36051 ft | 433 kts | 278° |
| 2026-04-22 17:27 | 40.84631 | -80.63020 | 36056 ft | 433 kts | 278° |
| 2026-04-22 17:28 | 40.85022 | -80.70963 | 36055 ft | 433 kts | 278° |
| 2026-04-22 17:28 | 40.85407 | -80.78903 | 36058 ft | 434 kts | 278° |
| 2026-04-22 17:29 | 40.85787 | -80.86853 | 36052 ft | 434 kts | 278° |
| 2026-04-22 17:29 | 40.86161 | -80.94792 | 36053 ft | 434 kts | 278° |
| 2026-04-22 17:30 | 40.86530 | -81.02755 | 36047 ft | 434 kts | 278° |
| 2026-04-22 17:30 | 40.86895 | -81.10716 | 36052 ft | 434 kts | 278° |
| 2026-04-22 17:31 | 40.87235 | -81.18667 | 36052 ft | 434 kts | 277° |
| 2026-04-22 17:31 | 40.87567 | -81.26649 | 36054 ft | 434 kts | 277° |
| 2026-04-22 17:32 | 40.87910 | -81.34615 | 36053 ft | 434 kts | 277° |
| 2026-04-22 17:32 | 40.88254 | -81.42587 | 36065 ft | 434 kts | 277° |
| 2026-04-22 17:33 | 40.88593 | -81.50547 | 36054 ft | 434 kts | 277° |
| 2026-04-22 17:33 | 40.88927 | -81.58511 | 36059 ft | 434 kts | 277° |
| 2026-04-22 17:34 | 40.89256 | -81.66479 | 36053 ft | 434 kts | 277° |
| 2026-04-22 17:34 | 40.89561 | -81.74449 | 36067 ft | 434 kts | 277° |
| 2026-04-22 17:35 | 40.89860 | -81.82370 | 36068 ft | 434 kts | 277° |
| 2026-04-22 17:35 | 40.90164 | -81.90332 | 36072 ft | 434 kts | 277° |
| 2026-04-22 17:36 | 40.90465 | -81.98282 | 36069 ft | 434 kts | 277° |
| 2026-04-22 17:36 | 40.90715 | -82.04976 | 36068 ft | 434 kts | 277° |
| 2026-04-22 17:37 | 40.91007 | -82.12932 | 36062 ft | 434 kts | 277° |
| 2026-04-22 17:37 | 40.91291 | -82.20839 | 36055 ft | 434 kts | 277° |
| 2026-04-22 17:38 | 40.91572 | -82.28810 | 36057 ft | 433 kts | 277° |
| 2026-04-22 17:38 | 40.91847 | -82.36774 | 36065 ft | 433 kts | 277° |
| 2026-04-22 17:39 | 40.92108 | -82.44722 | 36054 ft | 434 kts | 278° |
| 2026-04-22 17:40 | 40.92481 | -82.56763 | 36066 ft | 436 kts | 278° |
| 2026-04-22 17:40 | 40.92733 | -82.64769 | 36066 ft | 436 kts | 278° |
| 2026-04-22 17:41 | 40.92986 | -82.72782 | 36059 ft | 436 kts | 278° |
| 2026-04-22 17:41 | 40.93234 | -82.80799 | 36050 ft | 436 kts | 278° |
| 2026-04-22 17:42 | 40.93476 | -82.88810 | 36045 ft | 436 kts | 278° |
| 2026-04-22 17:42 | 40.93713 | -82.96824 | 36032 ft | 436 kts | 278° |
| 2026-04-22 17:43 | 40.93944 | -83.04850 | 36036 ft | 437 kts | 277° |
| 2026-04-22 17:43 | 40.94170 | -83.12875 | 36029 ft | 437 kts | 277° |
| 2026-04-22 17:44 | 40.94390 | -83.20892 | 36031 ft | 437 kts | 277° |
| 2026-04-22 17:44 | 40.94604 | -83.28923 | 36029 ft | 437 kts | 277° |
| 2026-04-22 17:45 | 40.94813 | -83.36949 | 36034 ft | 437 kts | 277° |
| 2026-04-22 17:45 | 40.95016 | -83.44982 | 36034 ft | 437 kts | 277° |
| 2026-04-22 17:46 | 40.95209 | -83.53014 | 36039 ft | 437 kts | 277° |
| 2026-04-22 17:46 | 40.95367 | -83.61050 | 36043 ft | 437 kts | 277° |
| 2026-04-22 17:47 | 40.95536 | -83.69082 | 36042 ft | 437 kts | 277° |
| 2026-04-22 17:47 | 40.95713 | -83.77125 | 36041 ft | 437 kts | 277° |
| 2026-04-22 17:48 | 40.95889 | -83.85172 | 36045 ft | 438 kts | 277° |
| 2026-04-22 17:48 | 40.96059 | -83.93216 | 36045 ft | 438 kts | 276° |
| 2026-04-22 17:49 | 40.96224 | -84.01267 | 36042 ft | 438 kts | 276° |
| 2026-04-22 17:49 | 40.96383 | -84.09319 | 36039 ft | 438 kts | 276° |
| 2026-04-22 17:50 | 40.96536 | -84.17381 | 36038 ft | 438 kts | 276° |
| 2026-04-22 17:50 | 40.96666 | -84.25406 | 36032 ft | 439 kts | 276° |
| 2026-04-22 17:51 | 40.96795 | -84.33544 | 36028 ft | 440 kts | 276° |
| 2026-04-22 17:51 | 40.96926 | -84.41567 | 36032 ft | 440 kts | 276° |
| 2026-04-22 17:52 | 40.97056 | -84.49656 | 36035 ft | 440 kts | 276° |
| 2026-04-22 17:52 | 40.97181 | -84.57756 | 36034 ft | 440 kts | 276° |
| 2026-04-22 17:53 | 40.97301 | -84.65870 | 36035 ft | 441 kts | 276° |
| 2026-04-22 17:53 | 40.97415 | -84.73978 | 36033 ft | 441 kts | 276° |
| 2026-04-22 17:54 | 40.97523 | -84.82086 | 36035 ft | 441 kts | 276° |
| 2026-04-22 17:54 | 40.97627 | -84.90211 | 36047 ft | 441 kts | 276° |
| 2026-04-22 17:55 | 40.97724 | -84.98315 | 36050 ft | 442 kts | 276° |
| 2026-04-22 17:55 | 40.97815 | -85.06454 | 36053 ft | 442 kts | 276° |
| 2026-04-22 17:56 | 40.97901 | -85.14580 | 36061 ft | 441 kts | 275° |
| 2026-04-22 17:56 | 40.98087 | -85.22690 | 36051 ft | 440 kts | 277° |
| 2026-04-22 17:57 | 40.98457 | -85.30766 | 36047 ft | 440 kts | 278° |
| 2026-04-22 17:57 | 40.98861 | -85.38842 | 36046 ft | 439 kts | 278° |
| 2026-04-22 17:58 | 40.99254 | -85.46906 | 36038 ft | 440 kts | 278° |
| 2026-04-22 17:58 | 40.99636 | -85.54982 | 36044 ft | 440 kts | 278° |
| 2026-04-22 17:59 | 41.00011 | -85.63072 | 36039 ft | 440 kts | 278° |
| 2026-04-22 17:59 | 41.00380 | -85.71166 | 36039 ft | 440 kts | 277° |
| 2026-04-22 18:00 | 41.00682 | -85.77889 | 36032 ft | 441 kts | 277° |
| 2026-04-22 18:00 | 41.01102 | -85.87360 | 36035 ft | 441 kts | 277° |
| 2026-04-22 18:01 | 41.01455 | -85.95463 | 36037 ft | 441 kts | 277° |
| 2026-04-22 18:01 | 41.01801 | -86.03569 | 36043 ft | 441 kts | 277° |
| 2026-04-22 18:02 | 41.02141 | -86.11623 | 36045 ft | 441 kts | 277° |
| 2026-04-22 18:02 | 41.02476 | -86.19729 | 36044 ft | 441 kts | 277° |
| 2026-04-22 18:03 | 41.02806 | -86.27894 | 36035 ft | 441 kts | 277° |
| 2026-04-22 18:03 | 41.03096 | -86.35957 | 36032 ft | 442 kts | 276° |
| 2026-04-22 18:04 | 41.03395 | -86.44097 | 36025 ft | 442 kts | 276° |
| 2026-04-22 18:04 | 41.03704 | -86.52222 | 36020 ft | 442 kts | 277° |
| 2026-04-22 18:05 | 41.04012 | -86.60350 | 36028 ft | 442 kts | 276° |
| 2026-04-22 18:05 | 41.04315 | -86.68483 | 36027 ft | 443 kts | 276° |
| 2026-04-22 18:06 | 41.04612 | -86.76644 | 36024 ft | 442 kts | 276° |
| 2026-04-22 18:06 | 41.04902 | -86.84785 | 36032 ft | 443 kts | 276° |
| 2026-04-22 18:07 | 41.05142 | -86.91607 | 36031 ft | 442 kts | 276° |
| 2026-04-22 18:07 | 41.05467 | -87.01068 | 36049 ft | 442 kts | 276° |
| 2026-04-22 18:08 | 41.05740 | -87.09193 | 36052 ft | 442 kts | 276° |
| 2026-04-22 18:08 | 41.06008 | -87.17325 | 36044 ft | 442 kts | 276° |
| 2026-04-22 18:09 | 41.06270 | -87.25473 | 36041 ft | 442 kts | 276° |
| 2026-04-22 18:09 | 41.06526 | -87.33603 | 36047 ft | 442 kts | 276° |
| 2026-04-22 18:10 | 41.06759 | -87.41751 | 36042 ft | 442 kts | 276° |
| 2026-04-22 18:10 | 41.06973 | -87.49885 | 36025 ft | 442 kts | 276° |
| 2026-04-22 18:11 | 41.07200 | -87.58021 | 36030 ft | 442 kts | 276° |
| 2026-04-22 18:11 | 41.07432 | -87.66150 | 36038 ft | 442 kts | 276° |
| 2026-04-22 18:12 | 41.07659 | -87.74271 | 36045 ft | 442 kts | 276° |
| 2026-04-22 18:12 | 41.07844 | -87.81044 | 36044 ft | 442 kts | 276° |
| 2026-04-22 18:13 | 41.08098 | -87.90575 | 36044 ft | 442 kts | 276° |
| 2026-04-22 18:13 | 41.08308 | -87.98732 | 36042 ft | 442 kts | 276° |
| 2026-04-22 18:14 | 41.08513 | -88.06875 | 36036 ft | 443 kts | 276° |
| 2026-04-22 18:14 | 41.08712 | -88.15033 | 36028 ft | 443 kts | 276° |
| 2026-04-22 18:15 | 41.08904 | -88.23128 | 36020 ft | 443 kts | 276° |
| 2026-04-22 18:15 | 41.09091 | -88.31293 | 36021 ft | 443 kts | 276° |
| 2026-04-22 18:16 | 41.09273 | -88.39449 | 36026 ft | 443 kts | 276° |
| 2026-04-22 18:16 | 41.09447 | -88.47604 | 36024 ft | 443 kts | 275° |
| 2026-04-22 18:17 | 41.09584 | -88.55778 | 36028 ft | 443 kts | 275° |
| 2026-04-22 18:17 | 41.09728 | -88.63946 | 36026 ft | 443 kts | 275° |
| 2026-04-22 18:18 | 41.09882 | -88.72119 | 36028 ft | 443 kts | 275° |
| 2026-04-22 18:18 | 41.10034 | -88.80294 | 36030 ft | 443 kts | 275° |
| 2026-04-22 18:19 | 41.10182 | -88.88461 | 36027 ft | 443 kts | 275° |
| 2026-04-22 18:19 | 41.10324 | -88.96639 | 36021 ft | 443 kts | 275° |
| 2026-04-22 18:20 | 41.10460 | -89.04814 | 36021 ft | 443 kts | 275° |
| 2026-04-22 18:20 | 41.10590 | -89.12986 | 36022 ft | 443 kts | 275° |
| 2026-04-22 18:21 | 41.10714 | -89.21151 | 36020 ft | 443 kts | 275° |
| 2026-04-22 18:21 | 41.10832 | -89.29314 | 36025 ft | 443 kts | 275° |
| 2026-04-22 18:22 | 41.10925 | -89.36108 | 36023 ft | 443 kts | 275° |
| 2026-04-22 18:22 | 41.11033 | -89.44286 | 36019 ft | 443 kts | 275° |
| 2026-04-22 18:23 | 41.11150 | -89.53763 | 36015 ft | 443 kts | 275° |
| 2026-04-22 18:23 | 41.11220 | -89.60603 | 36017 ft | 443 kts | 274° |
| 2026-04-22 18:24 | 41.11310 | -89.72835 | 36013 ft | 442 kts | 274° |
| 2026-04-22 18:25 | 41.11422 | -89.85066 | 36013 ft | 442 kts | 274° |
| 2026-04-22 18:25 | 41.11495 | -89.93212 | 36014 ft | 442 kts | 274° |
| 2026-04-22 18:26 | 41.11410 | -90.05444 | 36015 ft | 445 kts | 268° |
| 2026-04-22 18:26 | 41.10557 | -90.13538 | 36022 ft | 447 kts | 265° |
| 2026-04-22 18:27 | 41.09534 | -90.21658 | 36032 ft | 447 kts | 264° |
| 2026-04-22 18:27 | 41.08540 | -90.29803 | 36038 ft | 447 kts | 265° |
| 2026-04-22 18:28 | 41.07574 | -90.37926 | 36043 ft | 447 kts | 265° |
| 2026-04-22 18:28 | 41.06609 | -90.46052 | 36048 ft | 446 kts | 265° |
| 2026-04-22 18:29 | 41.05640 | -90.54181 | 36046 ft | 446 kts | 265° |
| 2026-04-22 18:29 | 41.04665 | -90.62292 | 36040 ft | 446 kts | 264° |
| 2026-04-22 18:30 | 41.03189 | -90.74472 | 36029 ft | 446 kts | 264° |
| 2026-04-22 18:31 | 41.02200 | -90.82575 | 36021 ft | 446 kts | 264° |
| 2026-04-22 18:31 | 41.01204 | -90.90683 | 36018 ft | 445 kts | 264° |
| 2026-04-22 18:32 | 41.00205 | -90.98772 | 36019 ft | 445 kts | 264° |
| 2026-04-22 18:32 | 40.99198 | -91.06872 | 36026 ft | 445 kts | 264° |
| 2026-04-22 18:33 | 40.98176 | -91.14953 | 36028 ft | 445 kts | 263° |
| 2026-04-22 18:33 | 40.97126 | -91.23032 | 36035 ft | 445 kts | 263° |
| 2026-04-22 18:34 | 40.96090 | -91.31108 | 36041 ft | 445 kts | 264° |
| 2026-04-22 18:34 | 40.95062 | -91.39174 | 36043 ft | 445 kts | 263° |
| 2026-04-22 18:35 | 40.94030 | -91.47241 | 36045 ft | 444 kts | 263° |
| 2026-04-22 18:35 | 40.93001 | -91.55239 | 36045 ft | 444 kts | 263° |
| 2026-04-22 18:36 | 40.92672 | -91.57787 | 36045 ft | 444 kts | 263° |
| 2026-04-22 18:36 | 40.91967 | -91.63236 | 36044 ft | 444 kts | 263° |
| 2026-04-22 18:37 | 40.90919 | -91.71284 | 36043 ft | 444 kts | 263° |
| 2026-04-22 18:37 | 40.89867 | -91.79314 | 36040 ft | 443 kts | 263° |
| 2026-04-22 18:38 | 40.88810 | -91.87340 | 36034 ft | 443 kts | 263° |
| 2026-04-22 18:38 | 40.87748 | -91.95366 | 36036 ft | 443 kts | 263° |
| 2026-04-22 18:39 | 40.86145 | -92.07387 | 36034 ft | 443 kts | 263° |
| 2026-04-22 18:39 | 40.85070 | -92.15392 | 36036 ft | 442 kts | 262° |
| 2026-04-22 18:40 | 40.83978 | -92.23388 | 36033 ft | 442 kts | 262° |
| 2026-04-22 18:40 | 40.82861 | -92.31369 | 36034 ft | 442 kts | 262° |
| 2026-04-22 18:41 | 40.81759 | -92.39344 | 36032 ft | 442 kts | 262° |
| 2026-04-22 18:41 | 40.80663 | -92.47322 | 36034 ft | 441 kts | 262° |
| 2026-04-22 18:42 | 40.79564 | -92.55291 | 36047 ft | 441 kts | 262° |
| 2026-04-22 18:42 | 40.78461 | -92.63250 | 36047 ft | 441 kts | 262° |
| 2026-04-22 18:43 | 40.77352 | -92.71201 | 36061 ft | 441 kts | 262° |
| 2026-04-22 18:43 | 40.76246 | -92.79096 | 36062 ft | 441 kts | 261° |
| 2026-04-22 18:44 | 40.75126 | -92.87045 | 36071 ft | 441 kts | 261° |
| 2026-04-22 18:44 | 40.74001 | -92.94988 | 36072 ft | 440 kts | 261° |
| 2026-04-22 18:45 | 40.72872 | -93.02919 | 36057 ft | 440 kts | 261° |
| 2026-04-22 18:45 | 40.71737 | -93.10855 | 36052 ft | 440 kts | 261° |
| 2026-04-22 18:46 | 40.70597 | -93.18777 | 36049 ft | 440 kts | 261° |
| 2026-04-22 18:46 | 40.69451 | -93.26704 | 36034 ft | 440 kts | 261° |
| 2026-04-22 18:47 | 40.68269 | -93.34615 | 36039 ft | 440 kts | 260° |
| 2026-04-22 18:47 | 40.67007 | -93.42508 | 36039 ft | 440 kts | 259° |
| 2026-04-22 18:48 | 40.65724 | -93.50394 | 36043 ft | 440 kts | 259° |
| 2026-04-22 18:48 | 40.64443 | -93.58274 | 36045 ft | 440 kts | 259° |
| 2026-04-22 18:49 | 40.63163 | -93.66151 | 36051 ft | 440 kts | 259° |
| 2026-04-22 18:49 | 40.61879 | -93.74024 | 36054 ft | 440 kts | 259° |
| 2026-04-22 18:50 | 40.60589 | -93.81892 | 36047 ft | 440 kts | 259° |
| 2026-04-22 18:50 | 40.59295 | -93.89756 | 36050 ft | 440 kts | 259° |
| 2026-04-22 18:51 | 40.57994 | -93.97622 | 36056 ft | 440 kts | 258° |
| 2026-04-22 18:51 | 40.56697 | -94.05429 | 36049 ft | 440 kts | 258° |
| 2026-04-22 18:52 | 40.55377 | -94.13334 | 36043 ft | 440 kts | 258° |
| 2026-04-22 18:52 | 40.54060 | -94.21194 | 36034 ft | 440 kts | 258° |
| 2026-04-22 18:53 | 40.52737 | -94.29048 | 36032 ft | 440 kts | 258° |
| 2026-04-22 18:53 | 40.51410 | -94.36899 | 36026 ft | 440 kts | 258° |
| 2026-04-22 18:54 | 40.50062 | -94.44744 | 36023 ft | 440 kts | 258° |
| 2026-04-22 18:54 | 40.48694 | -94.52581 | 36025 ft | 440 kts | 258° |
| 2026-04-22 18:55 | 40.47339 | -94.60416 | 36020 ft | 440 kts | 258° |
| 2026-04-22 18:55 | 40.45997 | -94.68200 | 36009 ft | 440 kts | 258° |
| 2026-04-22 18:56 | 40.44645 | -94.76026 | 36013 ft | 440 kts | 257° |
| 2026-04-22 18:56 | 40.43286 | -94.83857 | 36003 ft | 440 kts | 257° |
| 2026-04-22 18:57 | 40.41920 | -94.91688 | 36007 ft | 440 kts | 257° |
| 2026-04-22 18:57 | 40.40551 | -94.99507 | 36004 ft | 440 kts | 257° |
| 2026-04-22 18:58 | 40.39176 | -95.07328 | 36009 ft | 440 kts | 257° |
| 2026-04-22 18:58 | 40.37795 | -95.15148 | 36009 ft | 440 kts | 257° |
| 2026-04-22 18:59 | 40.36410 | -95.22957 | 36000 ft | 440 kts | 257° |
| 2026-04-22 18:59 | 40.35011 | -95.30764 | 35994 ft | 440 kts | 256° |
| 2026-04-22 19:00 | 40.33586 | -95.38561 | 35988 ft | 440 kts | 256° |
| 2026-04-22 19:00 | 40.32167 | -95.46360 | 35983 ft | 440 kts | 256° |
| 2026-04-22 19:01 | 40.30753 | -95.54161 | 35989 ft | 440 kts | 256° |
| 2026-04-22 19:01 | 40.29337 | -95.61955 | 35984 ft | 440 kts | 256° |
| 2026-04-22 19:02 | 40.27916 | -95.69745 | 35986 ft | 440 kts | 256° |
| 2026-04-22 19:02 | 40.26490 | -95.77530 | 35980 ft | 440 kts | 256° |
| 2026-04-22 19:03 | 40.25058 | -95.85316 | 35982 ft | 440 kts | 256° |
| 2026-04-22 19:03 | 40.23622 | -95.93091 | 35971 ft | 440 kts | 256° |
| 2026-04-22 19:04 | 40.22180 | -96.00861 | 35961 ft | 440 kts | 255° |
| 2026-04-22 19:04 | 40.20732 | -96.08639 | 35966 ft | 439 kts | 255° |
| 2026-04-22 19:05 | 40.19281 | -96.16398 | 35967 ft | 439 kts | 255° |
| 2026-04-22 19:05 | 40.17824 | -96.24164 | 35962 ft | 440 kts | 255° |
| 2026-04-22 19:06 | 40.16310 | -96.31907 | 35956 ft | 439 kts | 253° |
| 2026-04-22 19:07 | 40.13832 | -96.43436 | 35952 ft | 439 kts | 253° |
| 2026-04-22 19:07 | 40.12178 | -96.51131 | 35943 ft | 439 kts | 253° |
| 2026-04-22 19:08 | 40.10531 | -96.58821 | 35949 ft | 440 kts | 253° |
| 2026-04-22 19:08 | 40.09161 | -96.65211 | 35937 ft | 440 kts | 253° |
| 2026-04-22 19:09 | 40.07508 | -96.72896 | 35937 ft | 440 kts | 253° |
| 2026-04-22 19:09 | 40.05850 | -96.80574 | 35956 ft | 440 kts | 252° |
| 2026-04-22 19:10 | 40.04185 | -96.88257 | 35954 ft | 440 kts | 252° |
| 2026-04-22 19:10 | 40.02516 | -96.95932 | 35948 ft | 440 kts | 252° |
| 2026-04-22 19:11 | 40.00841 | -97.03606 | 35940 ft | 440 kts | 252° |
| 2026-04-22 19:11 | 39.99161 | -97.11278 | 35934 ft | 440 kts | 252° |
| 2026-04-22 19:12 | 39.97477 | -97.18940 | 35938 ft | 440 kts | 252° |
| 2026-04-22 19:12 | 39.95789 | -97.26591 | 35927 ft | 439 kts | 252° |
| 2026-04-22 19:13 | 39.94093 | -97.34231 | 35927 ft | 439 kts | 251° |
| 2026-04-22 19:13 | 39.92369 | -97.41848 | 35929 ft | 439 kts | 251° |
| 2026-04-22 19:14 | 39.90651 | -97.49478 | 35926 ft | 439 kts | 251° |
| 2026-04-22 19:14 | 39.88944 | -97.57095 | 35927 ft | 439 kts | 251° |
| 2026-04-22 19:15 | 39.87233 | -97.64718 | 35915 ft | 438 kts | 251° |
| 2026-04-22 19:15 | 39.85501 | -97.72333 | 35926 ft | 438 kts | 251° |
| 2026-04-22 19:16 | 39.83765 | -97.79939 | 35915 ft | 438 kts | 251° |
| 2026-04-22 19:16 | 39.82027 | -97.87542 | 35914 ft | 438 kts | 251° |
| 2026-04-22 19:17 | 39.80288 | -97.95140 | 35912 ft | 438 kts | 251° |
| 2026-04-22 19:17 | 39.78545 | -98.02727 | 35905 ft | 438 kts | 251° |
| 2026-04-22 19:18 | 39.76797 | -98.10313 | 35898 ft | 438 kts | 251° |
| 2026-04-22 19:18 | 39.75043 | -98.17895 | 35893 ft | 438 kts | 250° |
| 2026-04-22 19:19 | 39.73284 | -98.25475 | 35893 ft | 438 kts | 250° |
| 2026-04-22 19:19 | 39.71532 | -98.33001 | 35883 ft | 438 kts | 250° |
| 2026-04-22 19:20 | 39.69765 | -98.40564 | 35891 ft | 438 kts | 250° |
| 2026-04-22 19:20 | 39.67990 | -98.48138 | 35884 ft | 438 kts | 250° |
| 2026-04-22 19:21 | 39.66216 | -98.55685 | 35872 ft | 438 kts | 250° |
| 2026-04-22 19:21 | 39.64431 | -98.63254 | 35876 ft | 438 kts | 250° |
| 2026-04-22 19:22 | 39.62632 | -98.70809 | 35875 ft | 438 kts | 250° |
| 2026-04-22 19:22 | 39.60811 | -98.78345 | 35877 ft | 438 kts | 250° |
| 2026-04-22 19:23 | 39.59002 | -98.85880 | 35874 ft | 437 kts | 250° |
| 2026-04-22 19:23 | 39.57200 | -98.93409 | 35867 ft | 438 kts | 250° |
| 2026-04-22 19:24 | 39.55393 | -99.00935 | 35865 ft | 438 kts | 250° |
| 2026-04-22 19:24 | 39.53583 | -99.08468 | 35857 ft | 438 kts | 250° |
| 2026-04-22 19:25 | 39.51774 | -99.15988 | 35847 ft | 437 kts | 250° |
| 2026-04-22 19:25 | 39.49960 | -99.23513 | 35845 ft | 438 kts | 250° |
| 2026-04-22 19:26 | 39.48143 | -99.31023 | 35844 ft | 437 kts | 250° |
| 2026-04-22 19:26 | 39.46320 | -99.38537 | 35841 ft | 437 kts | 250° |
| 2026-04-22 19:27 | 39.44505 | -99.45993 | 35843 ft | 437 kts | 250° |
| 2026-04-22 19:27 | 39.42659 | -99.53554 | 35850 ft | 438 kts | 250° |
| 2026-04-22 19:28 | 39.40835 | -99.60998 | 35857 ft | 438 kts | 250° |
| 2026-04-22 19:28 | 39.38990 | -99.68506 | 35865 ft | 438 kts | 250° |
| 2026-04-22 19:29 | 39.37144 | -99.75994 | 35870 ft | 438 kts | 250° |
| 2026-04-22 19:29 | 39.35287 | -99.83504 | 35871 ft | 438 kts | 250° |
| 2026-04-22 19:30 | 39.33742 | -99.89735 | 35872 ft | 438 kts | 250° |
| 2026-04-22 19:30 | 39.31561 | -99.98491 | 35859 ft | 438 kts | 250° |
| 2026-04-22 19:31 | 39.29661 | -100.05972 | 35843 ft | 438 kts | 250° |
| 2026-04-22 19:31 | 39.27773 | -100.13437 | 35829 ft | 438 kts | 250° |
| 2026-04-22 19:32 | 39.25889 | -100.20922 | 35812 ft | 438 kts | 250° |
| 2026-04-22 19:32 | 39.24006 | -100.28398 | 35794 ft | 438 kts | 250° |
| 2026-04-22 19:33 | 39.22223 | -100.35908 | 35789 ft | 438 kts | 252° |
| 2026-04-22 19:33 | 39.20700 | -100.43525 | 35793 ft | 438 kts | 253° |
| 2026-04-22 19:34 | 39.19224 | -100.51146 | 35798 ft | 438 kts | 253° |
| 2026-04-22 19:34 | 39.17731 | -100.58761 | 35807 ft | 438 kts | 253° |
| 2026-04-22 19:35 | 39.16236 | -100.66307 | 35817 ft | 438 kts | 253° |
| 2026-04-22 19:35 | 39.14969 | -100.72670 | 35823 ft | 437 kts | 253° |
| 2026-04-22 19:36 | 39.13208 | -100.81484 | 35822 ft | 437 kts | 253° |
| 2026-04-22 19:36 | 39.11688 | -100.89059 | 35822 ft | 437 kts | 253° |
| 2026-04-22 19:37 | 39.10165 | -100.96624 | 35818 ft | 436 kts | 252° |
| 2026-04-22 19:37 | 39.08637 | -101.04182 | 35801 ft | 436 kts | 252° |
| 2026-04-22 19:38 | 39.07109 | -101.11716 | 35779 ft | 436 kts | 252° |
| 2026-04-22 19:38 | 39.05573 | -101.19263 | 35758 ft | 435 kts | 252° |
| 2026-04-22 19:39 | 39.04034 | -101.26790 | 35735 ft | 435 kts | 252° |
| 2026-04-22 19:39 | 39.02492 | -101.34310 | 35731 ft | 435 kts | 252° |
| 2026-04-22 19:40 | 39.00924 | -101.41811 | 35730 ft | 434 kts | 251° |
| 2026-04-22 19:40 | 38.99352 | -101.49305 | 35722 ft | 434 kts | 251° |
| 2026-04-22 19:41 | 38.97790 | -101.56804 | 35718 ft | 434 kts | 251° |
| 2026-04-22 19:41 | 38.96231 | -101.64300 | 35713 ft | 434 kts | 251° |
| 2026-04-22 19:42 | 38.94666 | -101.71801 | 35712 ft | 434 kts | 251° |
| 2026-04-22 19:42 | 38.93098 | -101.79285 | 35706 ft | 434 kts | 251° |
| 2026-04-22 19:43 | 38.90735 | -101.90519 | 35706 ft | 434 kts | 251° |
| 2026-04-22 19:43 | 38.89155 | -101.97999 | 35703 ft | 434 kts | 251° |
| 2026-04-22 19:44 | 38.87568 | -102.05482 | 35698 ft | 434 kts | 251° |
| 2026-04-22 19:44 | 38.85978 | -102.12955 | 35699 ft | 434 kts | 251° |
| 2026-04-22 19:45 | 38.84386 | -102.20415 | 35693 ft | 434 kts | 251° |
| 2026-04-22 19:45 | 38.82798 | -102.27827 | 35688 ft | 433 kts | 250° |
| 2026-04-22 19:46 | 38.81197 | -102.35274 | 35687 ft | 433 kts | 250° |
| 2026-04-22 19:46 | 38.79578 | -102.42709 | 35681 ft | 433 kts | 250° |
| 2026-04-22 19:47 | 38.77947 | -102.50112 | 35673 ft | 432 kts | 250° |
| 2026-04-22 19:47 | 38.76323 | -102.57541 | 35670 ft | 432 kts | 250° |
| 2026-04-22 19:48 | 38.74708 | -102.64945 | 35666 ft | 431 kts | 250° |
| 2026-04-22 19:48 | 38.73092 | -102.72339 | 35660 ft | 431 kts | 250° |
| 2026-04-22 19:49 | 38.71474 | -102.79715 | 35661 ft | 430 kts | 250° |
| 2026-04-22 19:49 | 38.69853 | -102.87082 | 35656 ft | 429 kts | 250° |
| 2026-04-22 19:50 | 38.68230 | -102.94430 | 35655 ft | 429 kts | 250° |
| 2026-04-22 19:50 | 38.66604 | -103.01767 | 35648 ft | 428 kts | 250° |
| 2026-04-22 19:51 | 38.64975 | -103.09093 | 35652 ft | 428 kts | 251° |
| 2026-04-22 19:51 | 38.63326 | -103.16398 | 35645 ft | 428 kts | 251° |
| 2026-04-22 19:52 | 38.61677 | -103.23712 | 35648 ft | 428 kts | 251° |
| 2026-04-22 19:52 | 38.60033 | -103.31023 | 35651 ft | 427 kts | 251° |
| 2026-04-22 19:53 | 38.58391 | -103.38317 | 35648 ft | 427 kts | 251° |
| 2026-04-22 19:53 | 38.56745 | -103.45606 | 35650 ft | 426 kts | 252° |
| 2026-04-22 19:54 | 38.55096 | -103.52886 | 35649 ft | 426 kts | 252° |
| 2026-04-22 19:54 | 38.53457 | -103.60097 | 35647 ft | 425 kts | 252° |
| 2026-04-22 19:55 | 38.51804 | -103.67349 | 35650 ft | 425 kts | 253° |
| 2026-04-22 19:55 | 38.50149 | -103.74583 | 35651 ft | 424 kts | 253° |
| 2026-04-22 19:56 | 38.48492 | -103.81803 | 35655 ft | 423 kts | 253° |
| 2026-04-22 19:56 | 38.46840 | -103.88982 | 35656 ft | 421 kts | 254° |
| 2026-04-22 19:57 | 38.45471 | -103.94913 | 35654 ft | 419 kts | 254° |
| 2026-04-22 19:57 | 38.43827 | -104.02017 | 35659 ft | 416 kts | 254° |
| 2026-04-22 19:58 | 38.42189 | -104.09071 | 35667 ft | 414 kts | 255° |
| 2026-04-22 19:58 | 38.40533 | -104.16090 | 35693 ft | 412 kts | 255° |
| 2026-04-22 20:00 | 38.34755 | -104.40592 | 35792 ft | 414 kts | 255° |
| 2026-04-22 20:01 | 38.33098 | -104.47612 | 35791 ft | 414 kts | 255° |
| 2026-04-22 20:01 | 38.31432 | -104.54648 | 35792 ft | 415 kts | 255° |
| 2026-04-22 20:02 | 38.29762 | -104.61682 | 35790 ft | 416 kts | 255° |
| 2026-04-22 20:02 | 38.28085 | -104.68723 | 35763 ft | 416 kts | 255° |
| 2026-04-22 20:03 | 38.26412 | -104.75724 | 35746 ft | 416 kts | 255° |
| 2026-04-22 20:03 | 38.24724 | -104.82772 | 35728 ft | 417 kts | 255° |
| 2026-04-22 20:04 | 38.23029 | -104.89822 | 35723 ft | 417 kts | 255° |
| 2026-04-22 20:04 | 38.21331 | -104.96869 | 35723 ft | 417 kts | 254° |
| 2026-04-22 20:05 | 38.19627 | -105.03915 | 35738 ft | 417 kts | 254° |
| 2026-04-22 20:05 | 38.17921 | -105.10953 | 35755 ft | 417 kts | 255° |
| 2026-04-22 20:06 | 38.16186 | -105.17987 | 35756 ft | 417 kts | 255° |
| 2026-04-22 20:06 | 38.14450 | -105.25012 | 35779 ft | 417 kts | 254° |
| 2026-04-22 20:07 | 38.12724 | -105.32036 | 35792 ft | 416 kts | 255° |
| 2026-04-22 20:07 | 38.11004 | -105.39047 | 35793 ft | 416 kts | 255° |
| 2026-04-22 20:08 | 38.09280 | -105.46053 | 35800 ft | 415 kts | 255° |
| 2026-04-22 20:08 | 38.07559 | -105.53030 | 35806 ft | 413 kts | 254° |
| 2026-04-22 20:09 | 38.05822 | -105.59968 | 35800 ft | 413 kts | 253° |
| 2026-04-22 20:09 | 38.03901 | -105.66836 | 35791 ft | 412 kts | 252° |
| 2026-04-22 20:10 | 38.01934 | -105.73654 | 35793 ft | 411 kts | 252° |
| 2026-04-22 20:10 | 37.99978 | -105.80438 | 35790 ft | 409 kts | 252° |
| 2026-04-22 20:11 | 37.98030 | -105.87206 | 35783 ft | 407 kts | 252° |
| 2026-04-22 20:11 | 37.96105 | -105.93894 | 35779 ft | 406 kts | 252° |
| 2026-04-22 20:12 | 37.94168 | -106.00608 | 35785 ft | 405 kts | 252° |
| 2026-04-22 20:12 | 37.92236 | -106.07286 | 35845 ft | 403 kts | 252° |
| 2026-04-22 20:13 | 37.90304 | -106.13945 | 35902 ft | 402 kts | 252° |
| 2026-04-22 20:13 | 37.88377 | -106.20573 | 35953 ft | 401 kts | 252° |
| 2026-04-22 20:14 | 37.86444 | -106.27205 | 35997 ft | 401 kts | 252° |
| 2026-04-22 20:14 | 37.84512 | -106.33819 | 36026 ft | 401 kts | 252° |
| 2026-04-22 20:15 | 37.82575 | -106.40431 | 36037 ft | 401 kts | 252° |
| 2026-04-22 20:15 | 37.80640 | -106.47023 | 36030 ft | 400 kts | 252° |
| 2026-04-22 20:16 | 37.78702 | -106.53606 | 36013 ft | 399 kts | 252° |
| 2026-04-22 20:16 | 37.76754 | -106.60176 | 36000 ft | 399 kts | 252° |
| 2026-04-22 20:17 | 37.74786 | -106.66731 | 35973 ft | 398 kts | 252° |
| 2026-04-22 20:17 | 37.72853 | -106.73199 | 35950 ft | 395 kts | 252° |
| 2026-04-22 20:18 | 37.70924 | -106.79682 | 35937 ft | 395 kts | 252° |
| 2026-04-22 20:18 | 37.68990 | -106.86180 | 35933 ft | 395 kts | 252° |
| 2026-04-22 20:19 | 37.67064 | -106.92629 | 35958 ft | 392 kts | 252° |
| 2026-04-22 20:19 | 37.65135 | -106.99080 | 35963 ft | 394 kts | 252° |
| 2026-04-22 20:20 | 37.63198 | -107.05538 | 35955 ft | 394 kts | 252° |
| 2026-04-22 20:20 | 37.61255 | -107.11998 | 35993 ft | 393 kts | 252° |
| 2026-04-22 20:21 | 37.59314 | -107.18437 | 35981 ft | 393 kts | 252° |
| 2026-04-22 20:21 | 37.57370 | -107.24873 | 35974 ft | 393 kts | 251° |
| 2026-04-22 20:22 | 37.55429 | -107.31281 | 35971 ft | 391 kts | 252° |
| 2026-04-22 20:22 | 37.53489 | -107.37675 | 35974 ft | 391 kts | 251° |
| 2026-04-22 20:23 | 37.51538 | -107.44090 | 35977 ft | 392 kts | 251° |
| 2026-04-22 20:23 | 37.49593 | -107.50466 | 35972 ft | 389 kts | 251° |
| 2026-04-22 20:24 | 37.47647 | -107.56825 | 35960 ft | 388 kts | 251° |
| 2026-04-22 20:24 | 37.45690 | -107.63123 | 35989 ft | 387 kts | 250° |
| 2026-04-22 20:25 | 37.43730 | -107.69451 | 35990 ft | 388 kts | 251° |
| 2026-04-22 20:25 | 37.41777 | -107.75780 | 36004 ft | 388 kts | 251° |
| 2026-04-22 20:26 | 37.39828 | -107.82103 | 36006 ft | 388 kts | 251° |
| 2026-04-22 20:26 | 37.37875 | -107.88418 | 36006 ft | 386 kts | 251° |
| 2026-04-22 20:27 | 37.35919 | -107.94731 | 35990 ft | 387 kts | 251° |
| 2026-04-22 20:27 | 37.33961 | -108.01038 | 35979 ft | 387 kts | 251° |
| 2026-04-22 20:28 | 37.31999 | -108.07341 | 35962 ft | 388 kts | 250° |
| 2026-04-22 20:28 | 37.30034 | -108.13640 | 35941 ft | 387 kts | 250° |
| 2026-04-22 20:29 | 37.28078 | -108.19896 | 35928 ft | 388 kts | 250° |
| 2026-04-22 20:29 | 37.26095 | -108.26229 | 35940 ft | 388 kts | 250° |
| 2026-04-22 20:30 | 37.24117 | -108.32530 | 35958 ft | 387 kts | 250° |
| 2026-04-22 20:30 | 37.22155 | -108.38771 | 35984 ft | 388 kts | 250° |
| 2026-04-22 20:31 | 37.20167 | -108.45073 | 36005 ft | 388 kts | 250° |
| 2026-04-22 20:31 | 37.18183 | -108.51348 | 36013 ft | 387 kts | 250° |
| 2026-04-22 20:32 | 37.16180 | -108.57618 | 36016 ft | 388 kts | 250° |
| 2026-04-22 20:32 | 37.14164 | -108.63892 | 36002 ft | 387 kts | 250° |
| 2026-04-22 20:33 | 37.12161 | -108.70157 | 35975 ft | 387 kts | 250° |
| 2026-04-22 20:33 | 37.10160 | -108.76428 | 35937 ft | 387 kts | 250° |
| 2026-04-22 20:34 | 37.08158 | -108.82690 | 35897 ft | 387 kts | 250° |
| 2026-04-22 20:34 | 37.06148 | -108.88941 | 35847 ft | 387 kts | 250° |
| 2026-04-22 20:35 | 37.04124 | -108.95197 | 35805 ft | 388 kts | 250° |
| 2026-04-22 20:35 | 37.02099 | -109.01458 | 35804 ft | 388 kts | 250° |
| 2026-04-22 20:36 | 37.00073 | -109.07715 | 35798 ft | 388 kts | 250° |
| 2026-04-22 20:36 | 36.98043 | -109.13974 | 35795 ft | 388 kts | 250° |
| 2026-04-22 20:37 | 36.96008 | -109.20237 | 35796 ft | 389 kts | 249° |
| 2026-04-22 20:37 | 36.93969 | -109.26496 | 35803 ft | 389 kts | 249° |
| 2026-04-22 20:38 | 36.91926 | -109.32756 | 35794 ft | 389 kts | 249° |
| 2026-04-22 20:38 | 36.89879 | -109.39014 | 35791 ft | 389 kts | 249° |
| 2026-04-22 20:39 | 36.87827 | -109.45274 | 35792 ft | 389 kts | 249° |
| 2026-04-22 20:39 | 36.85773 | -109.51524 | 35785 ft | 389 kts | 249° |
| 2026-04-22 20:40 | 36.83734 | -109.57719 | 35783 ft | 388 kts | 249° |
| 2026-04-22 20:40 | 36.81677 | -109.63954 | 35783 ft | 389 kts | 249° |
| 2026-04-22 20:41 | 36.79612 | -109.70197 | 35772 ft | 389 kts | 249° |
| 2026-04-22 20:41 | 36.77549 | -109.76425 | 35778 ft | 389 kts | 249° |
| 2026-04-22 20:42 | 36.75467 | -109.82677 | 35775 ft | 390 kts | 249° |
| 2026-04-22 20:42 | 36.73365 | -109.88910 | 35777 ft | 390 kts | 249° |
| 2026-04-22 20:43 | 36.71271 | -109.95146 | 35774 ft | 390 kts | 249° |
| 2026-04-22 20:43 | 36.69181 | -110.01390 | 35778 ft | 391 kts | 249° |
| 2026-04-22 20:44 | 36.67087 | -110.07642 | 35787 ft | 392 kts | 249° |
| 2026-04-22 20:44 | 36.65341 | -110.12847 | 35782 ft | 392 kts | 249° |
| 2026-04-22 20:45 | 36.63232 | -110.19118 | 35787 ft | 393 kts | 249° |
| 2026-04-22 20:45 | 36.60777 | -110.26406 | 35794 ft | 393 kts | 249° |
| 2026-04-22 20:46 | 36.57938 | -110.34810 | 36341 ft | 394 kts | 249° |
| 2026-04-22 20:46 | 36.56875 | -110.37947 | 36715 ft | 393 kts | 249° |
| 2026-04-22 20:46 | 36.55812 | -110.41062 | 37088 ft | 392 kts | 249° |
| 2026-04-22 20:47 | 36.54745 | -110.44180 | 37455 ft | 391 kts | 249° |
| 2026-04-22 20:47 | 36.53696 | -110.47250 | 37724 ft | 391 kts | 249° |
| 2026-04-22 20:47 | 36.51561 | -110.53509 | 37798 ft | 392 kts | 250° |
| 2026-04-22 20:48 | 36.49447 | -110.59701 | 37806 ft | 387 kts | 250° |
| 2026-04-22 20:48 | 36.47349 | -110.65850 | 37815 ft | 387 kts | 250° |
| 2026-04-22 20:49 | 36.45244 | -110.72008 | 37816 ft | 387 kts | 250° |
| 2026-04-22 20:49 | 36.43137 | -110.78151 | 37812 ft | 386 kts | 250° |
| 2026-04-22 20:50 | 36.41032 | -110.84276 | 37811 ft | 386 kts | 250° |
| 2026-04-22 20:50 | 36.38925 | -110.90396 | 37819 ft | 385 kts | 249° |
| 2026-04-22 20:51 | 36.36818 | -110.96505 | 37813 ft | 385 kts | 250° |
| 2026-04-22 20:51 | 36.34711 | -111.02599 | 37819 ft | 384 kts | 250° |
| 2026-04-22 20:52 | 36.32604 | -111.08683 | 37821 ft | 384 kts | 250° |
| 2026-04-22 20:52 | 36.30497 | -111.14751 | 37822 ft | 384 kts | 250° |
| 2026-04-22 20:53 | 36.28381 | -111.20837 | 37824 ft | 384 kts | 249° |
| 2026-04-22 20:53 | 36.26263 | -111.26915 | 37827 ft | 384 kts | 249° |
| 2026-04-22 20:54 | 36.24143 | -111.32982 | 37828 ft | 384 kts | 249° |
| 2026-04-22 20:54 | 36.21997 | -111.39041 | 37829 ft | 384 kts | 249° |
| 2026-04-22 20:55 | 36.19853 | -111.45105 | 37828 ft | 384 kts | 249° |
| 2026-04-22 20:55 | 36.17719 | -111.51166 | 37838 ft | 385 kts | 249° |
| 2026-04-22 20:56 | 36.15583 | -111.57234 | 37838 ft | 386 kts | 249° |
| 2026-04-22 20:56 | 36.13435 | -111.63324 | 37842 ft | 386 kts | 249° |
| 2026-04-22 20:57 | 36.11279 | -111.69422 | 37841 ft | 387 kts | 249° |
| 2026-04-22 20:57 | 36.09118 | -111.75540 | 37879 ft | 389 kts | 249° |
| 2026-04-22 20:58 | 36.06966 | -111.81666 | 37945 ft | 388 kts | 250° |
| 2026-04-22 20:58 | 36.04956 | -111.87847 | 37993 ft | 388 kts | 251° |
| 2026-04-22 20:59 | 36.02979 | -111.94054 | 38020 ft | 387 kts | 251° |
| 2026-04-22 20:59 | 36.01016 | -112.00198 | 38068 ft | 389 kts | 251° |
| 2026-04-22 21:00 | 35.99029 | -112.06418 | 38103 ft | 387 kts | 251° |
| 2026-04-22 21:00 | 35.97067 | -112.12541 | 38102 ft | 385 kts | 251° |
| 2026-04-22 21:01 | 35.95097 | -112.18673 | 38103 ft | 384 kts | 251° |
| 2026-04-22 21:01 | 35.93128 | -112.24787 | 38103 ft | 383 kts | 251° |
| 2026-04-22 21:02 | 35.91158 | -112.30893 | 38070 ft | 383 kts | 251° |
| 2026-04-22 21:02 | 35.89188 | -112.36988 | 38039 ft | 382 kts | 251° |
| 2026-04-22 21:03 | 35.87216 | -112.43072 | 38005 ft | 382 kts | 251° |
| 2026-04-22 21:03 | 35.85244 | -112.49143 | 37966 ft | 381 kts | 251° |
| 2026-04-22 21:04 | 35.83274 | -112.55196 | 37938 ft | 380 kts | 251° |
| 2026-04-22 21:04 | 35.81300 | -112.61251 | 37922 ft | 381 kts | 251° |
| 2026-04-22 21:05 | 35.79322 | -112.67305 | 37930 ft | 381 kts | 251° |
| 2026-04-22 21:05 | 35.77341 | -112.73358 | 37934 ft | 381 kts | 251° |
| 2026-04-22 21:06 | 35.75343 | -112.79398 | 37939 ft | 382 kts | 251° |
| 2026-04-22 21:06 | 35.73341 | -112.85419 | 37942 ft | 382 kts | 251° |
| 2026-04-22 21:07 | 35.71334 | -112.91484 | 37938 ft | 383 kts | 251° |
| 2026-04-22 21:07 | 35.69332 | -112.97542 | 37941 ft | 382 kts | 251° |
| 2026-04-22 21:08 | 35.67329 | -113.03598 | 37940 ft | 382 kts | 251° |
| 2026-04-22 21:08 | 35.65323 | -113.09649 | 37937 ft | 382 kts | 251° |
| 2026-04-22 21:09 | 35.63314 | -113.15699 | 37933 ft | 382 kts | 251° |
| 2026-04-22 21:09 | 35.61306 | -113.21734 | 37934 ft | 381 kts | 251° |
| 2026-04-22 21:10 | 35.59285 | -113.27759 | 37935 ft | 381 kts | 251° |
| 2026-04-22 21:10 | 35.57266 | -113.33776 | 37935 ft | 381 kts | 251° |
| 2026-04-22 21:11 | 35.55249 | -113.39792 | 37933 ft | 381 kts | 251° |
| 2026-04-22 21:11 | 35.53232 | -113.45806 | 37932 ft | 381 kts | 251° |
| 2026-04-22 21:12 | 35.51212 | -113.51816 | 37929 ft | 381 kts | 251° |
| 2026-04-22 21:12 | 35.49187 | -113.57829 | 37926 ft | 381 kts | 251° |
| 2026-04-22 21:13 | 35.47162 | -113.63830 | 37947 ft | 381 kts | 251° |
| 2026-04-22 21:13 | 35.45132 | -113.69836 | 37971 ft | 381 kts | 251° |
| 2026-04-22 21:14 | 35.43100 | -113.75836 | 38000 ft | 381 kts | 251° |
| 2026-04-22 21:14 | 35.41065 | -113.81829 | 38022 ft | 381 kts | 251° |
| 2026-04-22 21:15 | 35.39029 | -113.87816 | 38046 ft | 381 kts | 251° |
| 2026-04-22 21:15 | 35.36989 | -113.93801 | 38061 ft | 380 kts | 251° |
| 2026-04-22 21:16 | 35.34950 | -113.99773 | 38065 ft | 380 kts | 251° |
| 2026-04-22 21:16 | 35.32905 | -114.05752 | 38058 ft | 381 kts | 251° |
| 2026-04-22 21:17 | 35.30857 | -114.11728 | 38049 ft | 381 kts | 251° |
| 2026-04-22 21:17 | 35.28795 | -114.17717 | 38023 ft | 381 kts | 251° |
| 2026-04-22 21:18 | 35.26718 | -114.23675 | 37997 ft | 381 kts | 251° |
| 2026-04-22 21:18 | 35.24643 | -114.29654 | 37958 ft | 382 kts | 251° |
| 2026-04-22 21:19 | 35.22572 | -114.35638 | 37969 ft | 382 kts | 251° |
| 2026-04-22 21:19 | 35.20501 | -114.41621 | 37971 ft | 382 kts | 251° |
| 2026-04-22 21:20 | 35.18428 | -114.47597 | 37982 ft | 381 kts | 251° |
| 2026-04-22 21:20 | 35.16369 | -114.53522 | 37981 ft | 381 kts | 251° |
| 2026-04-22 21:21 | 35.14295 | -114.59479 | 37978 ft | 381 kts | 251° |
| 2026-04-22 21:21 | 35.12221 | -114.65431 | 37980 ft | 380 kts | 251° |
| 2026-04-22 21:22 | 35.10157 | -114.71382 | 37973 ft | 380 kts | 251° |
| 2026-04-22 21:22 | 35.08098 | -114.77327 | 37970 ft | 380 kts | 251° |
| 2026-04-22 21:23 | 35.06040 | -114.83264 | 37970 ft | 380 kts | 251° |
| 2026-04-22 21:23 | 35.03926 | -114.89160 | 37973 ft | 380 kts | 249° |
| 2026-04-22 21:24 | 35.01513 | -114.94920 | 37986 ft | 381 kts | 247° |
| 2026-04-22 21:24 | 34.99041 | -115.00632 | 37989 ft | 380 kts | 247° |
| 2026-04-22 21:25 | 34.96577 | -115.06340 | 37988 ft | 380 kts | 248° |
| 2026-04-22 21:25 | 34.94129 | -115.12029 | 37989 ft | 380 kts | 247° |
| 2026-04-22 21:26 | 34.91667 | -115.17744 | 37998 ft | 380 kts | 248° |
| 2026-04-22 21:26 | 34.89212 | -115.23438 | 37997 ft | 380 kts | 247° |
| 2026-04-22 21:27 | 34.86754 | -115.29127 | 38001 ft | 379 kts | 247° |
| 2026-04-22 21:27 | 34.84293 | -115.34814 | 38006 ft | 379 kts | 247° |
| 2026-04-22 21:28 | 34.81834 | -115.40487 | 38001 ft | 379 kts | 247° |
| 2026-04-22 21:28 | 34.79374 | -115.46153 | 38001 ft | 379 kts | 247° |
| 2026-04-22 21:29 | 34.77059 | -115.51902 | 38006 ft | 377 kts | 250° |
| 2026-04-22 21:29 | 34.74922 | -115.57718 | 38010 ft | 377 kts | 251° |
| 2026-04-22 21:30 | 34.72797 | -115.63552 | 38010 ft | 377 kts | 250° |
| 2026-04-22 21:30 | 34.70667 | -115.69373 | 38015 ft | 377 kts | 250° |
| 2026-04-22 21:31 | 34.68895 | -115.74201 | 38004 ft | 377 kts | 250° |
| 2026-04-22 21:31 | 34.66756 | -115.80013 | 38024 ft | 377 kts | 250° |
| 2026-04-22 21:32 | 34.64615 | -115.85819 | 38018 ft | 376 kts | 250° |
| 2026-04-22 21:32 | 34.62472 | -115.91617 | 38026 ft | 376 kts | 250° |
| 2026-04-22 21:33 | 34.60334 | -115.97400 | 37985 ft | 372 kts | 250° |
| 2026-04-22 21:33 | 34.59299 | -116.00190 | 37723 ft | 354 kts | 250° |
| 2026-04-22 21:33 | 34.58294 | -116.02905 | 36801 ft | 353 kts | 250° |
| 2026-04-22 21:34 | 34.57290 | -116.05634 | 35662 ft | 357 kts | 250° |
| 2026-04-22 21:34 | 34.56265 | -116.08422 | 34456 ft | 365 kts | 249° |
| 2026-04-22 21:34 | 34.55218 | -116.11267 | 33073 ft | 374 kts | 249° |
| 2026-04-22 21:34 | 34.54144 | -116.14175 | 31724 ft | 380 kts | 249° |
| 2026-04-22 21:35 | 34.53051 | -116.17127 | 30353 ft | 388 kts | 249° |
| 2026-04-22 21:35 | 34.51939 | -116.20126 | 28844 ft | 394 kts | 248° |
| 2026-04-22 21:35 | 34.50804 | -116.23186 | 27319 ft | 399 kts | 248° |
| 2026-04-22 21:35 | 34.49662 | -116.26260 | 26093 ft | 399 kts | 248° |
| 2026-04-22 21:36 | 34.48529 | -116.29302 | 25076 ft | 393 kts | 248° |
| 2026-04-22 21:36 | 34.47414 | -116.32294 | 24089 ft | 387 kts | 248° |
| 2026-04-22 21:36 | 34.46314 | -116.35247 | 23018 ft | 382 kts | 247° |
| 2026-04-22 21:36 | 34.45224 | -116.38169 | 21907 ft | 377 kts | 248° |
| 2026-04-22 21:37 | 34.44152 | -116.41041 | 20852 ft | 372 kts | 248° |
| 2026-04-22 21:37 | 34.43091 | -116.43880 | 19829 ft | 368 kts | 248° |
| 2026-04-22 21:37 | 34.42035 | -116.46692 | 18815 ft | 365 kts | 247° |
| 2026-04-22 21:37 | 34.40943 | -116.49447 | 17914 ft | 360 kts | 246° |
| 2026-04-22 21:38 | 34.39836 | -116.52141 | 17846 ft | 361 kts | 246° |
| 2026-04-22 21:38 | 34.38713 | -116.54858 | 17627 ft | 360 kts | 246° |
| 2026-04-22 21:38 | 34.37590 | -116.57573 | 17471 ft | 360 kts | 246° |
| 2026-04-22 21:38 | 34.36470 | -116.60284 | 18301 ft | 360 kts | 246° |
| 2026-04-22 21:39 | 34.35386 | -116.62901 | 19807 ft | 326 kts | 246° |
| 2026-04-22 21:39 | 34.34365 | -116.65361 | 20730 ft | 331 kts | 246° |
| 2026-04-22 21:39 | 34.33333 | -116.67884 | 20867 ft | 333 kts | 246° |
| 2026-04-22 21:39 | 34.32309 | -116.70428 | 20614 ft | 332 kts | 246° |
| 2026-04-22 21:40 | 34.31312 | -116.72911 | 20107 ft | 322 kts | 246° |
| 2026-04-22 21:40 | 34.30345 | -116.75330 | 19722 ft | 319 kts | 247° |
| 2026-04-22 21:40 | 34.29388 | -116.77724 | 19337 ft | 316 kts | 247° |
| 2026-04-22 21:40 | 34.28421 | -116.80143 | 19159 ft | 325 kts | 247° |
| 2026-04-22 21:41 | 34.27437 | -116.82603 | 19094 ft | 326 kts | 247° |
| 2026-04-22 21:41 | 34.26441 | -116.85091 | 19082 ft | 327 kts | 247° |
| 2026-04-22 21:41 | 34.25463 | -116.87529 | 19087 ft | 327 kts | 247° |
| 2026-04-22 21:41 | 34.24459 | -116.90030 | 19094 ft | 327 kts | 247° |
| 2026-04-22 21:42 | 34.23465 | -116.92503 | 19109 ft | 327 kts | 247° |
| 2026-04-22 21:42 | 34.22484 | -116.94943 | 19111 ft | 326 kts | 247° |
| 2026-04-22 21:42 | 34.21482 | -116.97439 | 19121 ft | 327 kts | 248° |
| 2026-04-22 21:42 | 34.20631 | -116.99942 | 19138 ft | 326 kts | 252° |
| 2026-04-22 21:43 | 34.19891 | -117.02492 | 18504 ft | 321 kts | 254° |
| 2026-04-22 21:43 | 34.19212 | -117.05007 | 18042 ft | 310 kts | 254° |
| 2026-04-22 21:43 | 34.18550 | -117.07488 | 17615 ft | 310 kts | 254° |
| 2026-04-22 21:43 | 34.17894 | -117.09957 | 17288 ft | 310 kts | 254° |
| 2026-04-22 21:44 | 34.17221 | -117.12484 | 17175 ft | 318 kts | 254° |
| 2026-04-22 21:44 | 34.16536 | -117.15035 | 17158 ft | 320 kts | 253° |
| 2026-04-22 21:44 | 34.15842 | -117.17576 | 16970 ft | 315 kts | 253° |
| 2026-04-22 21:44 | 34.15150 | -117.20100 | 16087 ft | 317 kts | 253° |
| 2026-04-22 21:45 | 34.14459 | -117.22618 | 15418 ft | 313 kts | 253° |
| 2026-04-22 21:45 | 34.13784 | -117.25068 | 15015 ft | 305 kts | 253° |
| 2026-04-22 21:45 | 34.13117 | -117.27492 | 14640 ft | 304 kts | 253° |
| 2026-04-22 21:45 | 34.12451 | -117.29909 | 14309 ft | 304 kts | 253° |
| 2026-04-22 21:46 | 34.11773 | -117.32375 | 14200 ft | 313 kts | 253° |
| 2026-04-22 21:46 | 34.11089 | -117.34858 | 14166 ft | 314 kts | 253° |
| 2026-04-22 21:46 | 34.10414 | -117.37367 | 14164 ft | 314 kts | 254° |
| 2026-04-22 21:46 | 34.09780 | -117.39851 | 14007 ft | 304 kts | 255° |
| 2026-04-22 21:47 | 34.09174 | -117.42268 | 13411 ft | 297 kts | 255° |
| 2026-04-22 21:47 | 34.08591 | -117.44604 | 12997 ft | 288 kts | 255° |
| 2026-04-22 21:47 | 34.08016 | -117.46917 | 12579 ft | 288 kts | 255° |
| 2026-04-22 21:47 | 34.07403 | -117.49213 | 12243 ft | 290 kts | 251° |
| 2026-04-22 21:48 | 34.06644 | -117.51522 | 12019 ft | 295 kts | 250° |
| 2026-04-22 21:48 | 34.05843 | -117.53812 | 11368 ft | 293 kts | 249° |
| 2026-04-22 21:48 | 34.05050 | -117.56033 | 10978 ft | 284 kts | 249° |
| 2026-04-22 21:48 | 34.04266 | -117.58223 | 10579 ft | 287 kts | 249° |
| 2026-04-22 21:49 | 34.03477 | -117.60435 | 10266 ft | 288 kts | 249° |
| 2026-04-22 21:49 | 34.02670 | -117.62697 | 10180 ft | 295 kts | 249° |
| 2026-04-22 21:49 | 34.01854 | -117.64981 | 10166 ft | 298 kts | 249° |
| 2026-04-22 21:49 | 34.01060 | -117.67225 | 10148 ft | 280 kts | 252° |
| 2026-04-22 21:50 | 34.00593 | -117.69421 | 10140 ft | 265 kts | 262° |
| 2026-04-22 21:50 | 34.00327 | -117.71587 | 9813 ft | 258 kts | 264° |
| 2026-04-22 21:50 | 34.00106 | -117.73754 | 9428 ft | 265 kts | 265° |
| 2026-04-22 21:50 | 33.99892 | -117.75961 | 9069 ft | 265 kts | 265° |
| 2026-04-22 21:51 | 33.99676 | -117.78155 | 8721 ft | 265 kts | 265° |
| 2026-04-22 21:51 | 33.99461 | -117.80361 | 8341 ft | 264 kts | 265° |
| 2026-04-22 21:51 | 33.99246 | -117.82556 | 8026 ft | 261 kts | 265° |
| 2026-04-22 21:52 | 33.98822 | -117.86923 | 7338 ft | 262 kts | 265° |
| 2026-04-22 21:52 | 33.98609 | -117.89097 | 7019 ft | 259 kts | 265° |
| 2026-04-22 21:52 | 33.98397 | -117.91257 | 6853 ft | 264 kts | 265° |
| 2026-04-22 21:52 | 33.98182 | -117.93478 | 6267 ft | 269 kts | 265° |
| 2026-04-22 21:53 | 33.97963 | -117.95690 | 5883 ft | 262 kts | 265° |
| 2026-04-22 21:53 | 33.97750 | -117.97856 | 5489 ft | 258 kts | 265° |
| 2026-04-22 21:53 | 33.97538 | -117.99997 | 5117 ft | 258 kts | 265° |
| 2026-04-22 21:53 | 33.97327 | -118.02135 | 4979 ft | 258 kts | 265° |
| 2026-04-22 21:54 | 33.97113 | -118.04299 | 4960 ft | 261 kts | 265° |
| 2026-04-22 21:54 | 33.96929 | -118.06159 | 4956 ft | 262 kts | 265° |
| 2026-04-22 21:54 | 33.96711 | -118.08348 | 4963 ft | 263 kts | 265° |
| 2026-04-22 21:54 | 33.96492 | -118.10544 | 4606 ft | 263 kts | 264° |
| 2026-04-22 21:55 | 33.96279 | -118.12678 | 4231 ft | 258 kts | 264° |
| 2026-04-22 21:55 | 33.96067 | -118.14801 | 3862 ft | 253 kts | 263° |
| 2026-04-22 21:55 | 33.95858 | -118.16878 | 3604 ft | 245 kts | 263° |
| 2026-04-22 21:55 | 33.95654 | -118.18901 | 3328 ft | 238 kts | 263° |
| 2026-04-22 21:56 | 33.95458 | -118.20842 | 2962 ft | 235 kts | 263° |
| 2026-04-22 21:56 | 33.95263 | -118.22786 | 2574 ft | 233 kts | 263° |
| 2026-04-22 21:56 | 33.95067 | -118.24741 | 2195 ft | 230 kts | 263° |
| 2026-04-22 21:56 | 33.94899 | -118.26609 | 1922 ft | 224 kts | 264° |
| 2026-04-22 21:57 | 33.94741 | -118.28420 | 1795 ft | 214 kts | 262° |
| 2026-04-22 21:57 | 33.94552 | -118.30193 | 1514 ft | 209 kts | 262° |
| 2026-04-22 21:57 | 33.94383 | -118.31814 | 1196 ft | 183 kts | 262° |
| 2026-04-22 21:57 | 33.94235 | -118.33265 | 1016 ft | 167 kts | 262° |
| 2026-04-22 21:58 | 33.94103 | -118.34571 | 641 ft | 149 kts | 262° |
| 2026-04-22 21:58 | 33.93984 | -118.35748 | 470 ft | 137 kts | 264° |
| 2026-04-22 21:58 | 33.93871 | -118.36894 | 372 ft | 138 kts | 262° |
| 2026-04-22 21:58 | 33.93753 | -118.38038 | 181 ft | 137 kts | 263° |
| 2026-04-22 21:59 | 33.93655 | -118.39012 | 113 ft | 131 kts | 263° |
| 2026-04-22 21:59 | 33.93590 | -118.39697 | 118 ft | 81 kts | 264° |
| 2026-04-22 21:59 | 33.93531 | -118.40137 | 117 ft | 36 kts | 242° |
| 2026-04-22 21:59 | 33.93431 | -118.40305 | 110 ft | 15 kts | 226° |
| 2026-04-22 22:00 | 33.93411 | -118.40330 | 109 ft | 0 kts | 236° |